Terminal Aerodrome Forecast
Issued by NWS Tampa Bay Area, FL

Home | Current Version | Previous Version | Text Only | Print | Product List | Glossary On
Versions: 1 2 3 4 5 6 7 8 9 10 11 12 13
000
FTUS42 KTBW 021731
TAFFMY
TAF
KFMY 021731Z 0218/0318 22010KT P6SM VCTS SCT030CB BKN250
     FM022300 25006KT P6SM VCTS SCT035CB BKN250
     FM030200 17004KT P6SM VCSH SCT030 BKN250
     FM031500 23007KT P6SM VCTS SCT035CB BKN250=

USA.gov is the U.S. government's official web portal to all federal, state and local government web resources and services.